Austin, Utah
Current Conditions -  °F | °C
As of 8:52 PM on Friday 19 Dec 2014 (Local Time) from KMLF Reporting Station
Broken Clouds Broken Clouds  
Wind Chill: 27°   Ceiling: 11000
Heat Index: 37°   Visibility: 10mi
Dew Point: 28°   Wind: 17mph
Humidity: 70%   Direction: 190°S
Pressure: 30.14"   Gusts: NA
Location:  38.6125°N, 112.081°W
Report Text: KMLF 200352Z AUTO 19015KT 10SM BKN110 03/M02 A3014 RMK AO2 SLP218 T00281022 TSNO
Loading
Personal Weather Stations






























Interactive Weather Map New forecast layout! Learn more

10-Day Weather Forecast

Advertisements
Track Severe Weather on mobile